Time;durP1;ratioP1;P1;durP2;ratioP2;P2;SDS_P1;SDS_P2;PMS_P1;PMS_P2;Temp;Humidity;BMP_temperature;BMP_pressure;BME280_temperature;BME280_humidity;BME280_pressure;Samples;Min_cycle;Max_cycle;Signal;HPM_P1;HPM_P2
2022/10/19 00:00:14;;;;;;;13.97;9.43;;;17.10;99.90;;;;;;5099650;28;20211;-69
2022/10/19 00:02:41;;;;;;;14.97;8.73;;;13.50;99.90;;;;;;5112453;28;20219;-69
2022/10/19 00:05:09;;;;;;;12.07;8.40;;;13.40;99.90;;;;;;5108987;28;20212;-69
2022/10/19 00:07:36;;;;;;;11.47;7.60;;;13.40;99.90;;;;;;5112796;28;20491;-69
2022/10/19 00:10:04;;;;;;;11.63;7.30;;;13.30;99.90;;;;;;5111204;28;20227;-69
2022/10/19 00:12:31;;;;;;;9.57;7.60;;;13.30;99.90;;;;;;5111838;28;20208;-69
2022/10/19 00:14:58;;;;;;;11.30;7.63;;;13.30;99.90;;;;;;5110327;28;20219;-68
2022/10/19 00:17:24;;;;;;;12.30;7.50;;;13.30;99.90;;;;;;5106533;28;20216;-69
2022/10/19 00:19:51;;;;;;;9.73;7.43;;;13.30;99.90;;;;;;5111960;28;20660;-68
2022/10/19 00:22:19;;;;;;;10.30;6.90;;;13.20;99.90;;;;;;5109003;28;20232;-69
2022/10/19 00:24:46;;;;;;;9.93;6.57;;;13.20;99.90;;;;;;5110186;28;20653;-69
2022/10/19 00:27:13;;;;;;;9.23;6.70;;;13.10;99.90;;;;;;5110968;28;20239;-69
2022/10/19 00:29:40;;;;;;;9.33;6.97;;;13.10;99.90;;;;;;5112503;28;20203;-68
2022/10/19 00:32:06;;;;;;;8.73;6.60;;;13.00;99.90;;;;;;5115662;27;20270;-68
2022/10/19 00:34:33;;;;;;;10.00;6.27;;;13.00;99.90;;;;;;5108337;28;20200;-68
2022/10/19 00:37:00;;;;;;;9.67;6.87;;;12.90;99.90;;;;;;5098782;28;20278;-68
2022/10/19 00:39:28;;;;;;;10.43;6.63;;;12.90;99.90;;;;;;5110539;28;20211;-68
2022/10/19 00:41:55;;;;;;;12.63;7.20;;;12.80;99.90;;;;;;5112054;28;20576;-68
2022/10/19 00:44:57;;;;;;;12.07;6.67;;;12.80;99.90;;;;;;5110248;28;20649;-68
2022/10/19 00:47:25;;;;;;;11.93;6.47;;;12.70;99.90;;;;;;5102908;28;20200;-68
2022/10/19 00:49:52;;;;;;;9.10;6.40;;;12.70;99.90;;;;;;5107147;28;20546;-68
2022/10/19 00:52:23;;;;;;;13.07;6.97;;;12.60;99.90;;;;;;5104645;28;20211;-68
2022/10/19 00:54:53;;;;;;;13.17;7.13;;;12.60;99.90;;;;;;5108248;28;20211;-68
2022/10/19 00:57:21;;;;;;;8.77;5.73;;;12.60;99.90;;;;;;5098907;28;20688;-68
2022/10/19 00:59:48;;;;;;;9.40;6.00;;;12.50;99.90;;;;;;5105957;28;20700;-68
2022/10/19 01:02:15;;;;;;;11.33;7.07;;;12.50;99.90;;;;;;5108404;28;20212;-68
2022/10/19 01:04:46;;;;;;;10.70;6.37;;;12.50;99.90;;;;;;5113876;28;20216;-68
2022/10/19 01:07:14;;;;;;;9.33;7.23;;;12.40;99.90;;;;;;5105437;28;20204;-69
2022/10/19 01:09:41;;;;;;;14.80;7.87;;;;;;;;;;5109147;28;20208;-68
2022/10/19 01:12:22;;;;;;;12.73;8.40;;;12.50;99.90;;;;;;5113950;28;20690;-69
2022/10/19 01:15:03;;;;;;;12.53;7.50;;;12.40;99.90;;;;;;5111120;28;20206;-67
2022/10/19 01:17:38;;;;;;;10.90;8.23;;;12.40;99.90;;;;;;5103072;28;20216;-68
2022/10/19 01:20:20;;;;;;;14.37;8.40;;;12.40;99.90;;;;;;5112706;28;20215;-68
2022/10/19 01:23:05;;;;;;;10.17;8.27;;;12.40;99.90;;;;;;5112752;28;20237;-68
2022/10/19 01:25:48;;;;;;;12.03;8.57;;;12.50;99.90;;;;;;5103657;28;20200;-68
2022/10/19 01:28:37;;;;;;;12.53;8.77;;;12.40;99.90;;;;;;5099248;28;20606;-68
2022/10/19 01:31:18;;;;;;;13.07;9.60;;;12.40;99.90;;;;;;5100448;28;20204;-68
2022/10/19 01:33:51;;;;;;;15.43;9.20;;;12.40;99.90;;;;;;5110180;28;20211;-68
2022/10/19 01:36:22;;;;;;;13.60;9.83;;;12.40;99.90;;;;;;5112699;28;20203;-68
2022/10/19 01:38:55;;;;;;;13.17;8.93;;;12.40;99.90;;;;;;5112669;28;20228;-68
2022/10/19 01:41:30;;;;;;;13.57;9.27;;;12.40;99.90;;;;;;5113028;28;20203;-68
2022/10/19 01:44:01;;;;;;;11.60;8.17;;;12.30;99.90;;;;;;5103257;28;20203;-68
2022/10/19 01:46:33;;;;;;;18.73;8.97;;;12.40;99.90;;;;;;5110753;28;20430;-68
2022/10/19 01:49:04;;;;;;;14.17;8.23;;;12.40;99.90;;;;;;5111172;28;20200;-68
2022/10/19 01:51:34;;;;;;;14.43;8.43;;;12.40;99.90;;;;;;5108305;28;20799;-67
2022/10/19 01:54:04;;;;;;;13.67;8.07;;;12.40;99.90;;;;;;5105060;28;20211;-69
2022/10/19 01:56:33;;;;;;;10.20;7.63;;;12.30;99.90;;;;;;5109087;28;20291;-68
2022/10/19 01:59:03;;;;;;;10.50;7.23;;;12.20;99.90;;;;;;5112030;28;20228;-67
2022/10/19 02:01:35;;;;;;;13.93;7.93;;;12.30;99.90;;;;;;5113076;28;20208;-68
2022/10/19 02:04:03;;;;;;;13.33;7.40;;;12.20;99.90;;;;;;5101303;28;20208;-68
2022/10/19 02:06:29;;;;;;;10.77;7.03;;;12.20;99.90;;;;;;5111406;28;20207;-68
2022/10/19 02:08:56;;;;;;;11.93;7.17;;;12.20;99.90;;;;;;5105936;28;20192;-68
2022/10/19 02:11:24;;;;;;;11.63;6.57;;;12.20;99.90;;;;;;5113192;28;20607;-68
2022/10/19 02:13:56;;;;;;;12.40;7.40;;;12.20;99.90;;;;;;5110371;28;20207;-68
2022/10/19 02:16:27;;;;;;;9.20;6.60;;;12.20;99.90;;;;;;5111329;28;20204;-69
2022/10/19 02:18:56;;;;;;;10.03;7.20;;;12.20;99.90;;;;;;5108013;28;20216;-68
2022/10/19 02:21:23;;;;;;;15.63;7.50;;;12.20;99.90;;;;;;5113126;28;20208;-68
2022/10/19 02:23:50;;;;;;;12.53;7.90;;;12.20;99.90;;;;;;5109061;28;20247;-68
2022/10/19 02:26:17;;;;;;;13.10;7.90;;;12.20;99.90;;;;;;5112071;28;20211;-68
2022/10/19 02:28:44;;;;;;;15.03;8.23;;;;;;;;;;5112767;28;20683;-68
2022/10/19 02:31:11;;;;;;;10.43;7.53;;;12.20;99.90;;;;;;5110545;28;20209;-68
2022/10/19 02:33:38;;;;;;;14.60;7.73;;;12.10;99.90;;;;;;5100754;28;20204;-68
2022/10/19 02:36:07;;;;;;;11.70;8.07;;;12.10;99.90;;;;;;5110204;28;20207;-68
2022/10/19 02:38:34;;;;;;;15.60;8.37;;;12.20;99.90;;;;;;5110619;28;20243;-67
2022/10/19 02:41:06;;;;;;;14.50;8.03;;;12.20;99.90;;;;;;5098831;28;20400;-68
2022/10/19 02:43:37;;;;;;;13.03;7.70;;;12.10;99.90;;;;;;5099133;28;20204;-68
2022/10/19 02:46:08;;;;;;;11.20;8.03;;;12.10;99.90;;;;;;5110977;28;20204;-68
2022/10/19 02:48:36;;;;;;;13.33;8.13;;;12.10;99.90;;;;;;5107747;28;20215;-67
2022/10/19 02:51:03;;;;;;;15.27;7.53;;;;;;;;;;5104495;28;20215;-68
2022/10/19 02:53:31;;;;;;;13.70;7.53;;;12.00;99.90;;;;;;5109136;28;20267;-68
2022/10/19 02:55:58;;;;;;;18.03;8.13;;;11.90;99.90;;;;;;5110902;28;20265;-68
2022/10/19 02:58:25;;;;;;;12.83;7.60;;;11.90;99.90;;;;;;5108924;28;20212;-69
2022/10/19 03:00:51;;;;;;;12.47;7.97;;;11.80;99.90;;;;;;5109696;28;20211;-68
2022/10/19 03:03:18;;;;;;;12.17;8.67;;;;;;;;;;5109471;28;20609;-69
2022/10/19 03:05:45;;;;;;;11.53;7.80;;;11.80;99.90;;;;;;5109127;28;20632;-68
2022/10/19 03:08:12;;;;;;;16.53;7.70;;;11.80;99.90;;;;;;5108662;28;20219;-68
2022/10/19 03:10:40;;;;;;;19.07;8.50;;;11.70;99.90;;;;;;5109453;28;20718;-68
2022/10/19 03:13:07;;;;;;;13.37;8.50;;;;;;;;;;5091490;28;20220;-68
2022/10/19 03:15:33;;;;;;;13.83;7.83;;;11.70;99.90;;;;;;5103897;28;20207;-69
2022/10/19 03:18:00;;;;;;;12.53;7.67;;;11.70;99.90;;;;;;5097923;28;20216;-68
2022/10/19 03:20:27;;;;;;;12.13;7.80;;;11.60;99.90;;;;;;5103916;28;20548;-68
2022/10/19 03:22:54;;;;;;;12.93;7.73;;;11.60;99.90;;;;;;5110710;28;20220;-69
2022/10/19 03:25:20;;;;;;;16.23;8.90;;;11.60;99.90;;;;;;5098956;28;20656;-68
2022/10/19 03:27:48;;;;;;;16.20;8.23;;;11.60;99.90;;;;;;5106023;28;20242;-67
2022/10/19 03:30:15;;;;;;;9.97;7.73;;;11.60;99.90;;;;;;5105648;28;20204;-68
2022/10/19 03:32:42;;;;;;;14.37;8.93;;;;;;;;;;5103256;28;20204;-68
2022/10/19 03:35:09;;;;;;;15.80;8.80;;;11.60;99.90;;;;;;5098672;28;20208;-68
2022/10/19 03:37:36;;;;;;;14.40;8.27;;;11.70;99.90;;;;;;5099296;28;20203;-68
2022/10/19 03:40:03;;;;;;;14.80;8.80;;;11.60;99.90;;;;;;5100794;28;20616;-68
2022/10/19 03:42:30;;;;;;;12.40;8.07;;;11.70;99.90;;;;;;5109954;28;20203;-69
2022/10/19 03:44:58;;;;;;;12.23;8.90;;;11.70;99.90;;;;;;5109127;28;20246;-68
2022/10/19 03:47:24;;;;;;;13.40;8.80;;;11.70;99.90;;;;;;5107344;28;20208;-69
2022/10/19 03:49:51;;;;;;;18.83;9.33;;;11.60;99.90;;;;;;5110219;28;20582;-68
2022/10/19 03:52:18;;;;;;;16.40;9.37;;;11.70;99.90;;;;;;5109577;28;20210;-68
2022/10/19 03:54:46;;;;;;;12.67;8.80;;;11.60;99.90;;;;;;5108784;28;20204;-68
2022/10/19 03:57:13;;;;;;;13.93;7.93;;;11.70;99.90;;;;;;5103986;28;20570;-68
2022/10/19 03:59:39;;;;;;;14.63;8.47;;;11.60;99.90;;;;;;5108154;28;20231;-68
2022/10/19 04:02:07;;;;;;;13.57;8.27;;;11.60;99.90;;;;;;5095757;28;20208;-69
2022/10/19 04:04:34;;;;;;;14.93;8.93;;;11.60;99.90;;;;;;5109996;28;20208;-68
2022/10/19 04:07:01;;;;;;;13.33;8.07;;;11.70;99.90;;;;;;5106205;28;20576;-68
2022/10/19 04:09:28;;;;;;;14.13;9.07;;;11.60;99.90;;;;;;5110343;28;20210;-69
2022/10/19 04:11:54;;;;;;;14.53;8.40;;;11.60;99.90;;;;;;5107077;28;20196;-69
2022/10/19 04:14:22;;;;;;;13.37;8.30;;;11.60;99.90;;;;;;5101365;28;20204;-68
2022/10/19 04:16:48;;;;;;;14.07;7.63;;;11.60;99.90;;;;;;5108637;28;20229;-69
2022/10/19 04:19:17;;;;;;;16.33;8.23;;;11.60;99.90;;;;;;5109032;28;20585;-69
2022/10/19 04:21:44;;;;;;;13.40;8.20;;;11.60;99.90;;;;;;5108300;28;20587;-68
2022/10/19 04:24:13;;;;;;;11.27;7.43;;;11.70;99.90;;;;;;5108672;28;20713;-68
2022/10/19 04:26:42;;;;;;;16.43;7.90;;;11.60;99.90;;;;;;5106525;28;20228;-67
2022/10/19 04:29:09;;;;;;;10.23;7.83;;;11.20;99.90;;;;;;5108332;28;20572;-69
2022/10/19 04:31:36;;;;;;;11.83;7.43;;;11.60;99.90;;;;;;5104922;28;20321;-68
2022/10/19 04:34:02;;;;;;;13.40;6.93;;;11.50;99.90;;;;;;5107060;28;20204;-68
2022/10/19 04:36:31;;;;;;;10.23;7.10;;;11.60;99.90;;;;;;5107475;28;20206;-68
2022/10/19 04:38:57;;;;;;;10.10;7.30;;;11.60;99.90;;;;;;5106133;28;20223;-68
2022/10/19 04:41:24;;;;;;;10.43;6.73;;;11.60;99.90;;;;;;5106436;28;20204;-68
2022/10/19 04:43:55;;;;;;;9.90;6.47;;;11.70;99.90;;;;;;5108692;28;20211;-68
2022/10/19 04:46:22;;;;;;;12.77;6.27;;;;;;;;;;5106291;28;20223;-67
2022/10/19 04:48:50;;;;;;;8.67;6.20;;;11.60;99.90;;;;;;5099585;28;20719;-68
2022/10/19 04:51:18;;;;;;;12.17;6.63;;;11.60;99.90;;;;;;5106707;28;20645;-68
2022/10/19 04:53:46;;;;;;;11.43;6.53;;;11.60;99.90;;;;;;5108571;28;20277;-67
2022/10/19 04:56:15;;;;;;;9.43;6.07;;;11.60;99.90;;;;;;5107038;28;20208;-67
2022/10/19 04:58:42;;;;;;;10.80;6.83;;;11.70;99.90;;;;;;5107971;28;20231;-69
2022/10/19 05:01:10;;;;;;;11.67;6.70;;;11.70;99.90;;;;;;5102989;28;20224;-68
2022/10/19 05:03:36;;;;;;;10.07;6.30;;;11.70;99.90;;;;;;5097935;28;20208;-69
2022/10/19 05:06:04;;;;;;;9.93;6.60;;;;;;;;;;5107341;28;20543;-69
2022/10/19 05:08:30;;;;;;;9.10;6.43;;;11.60;99.90;;;;;;5107688;28;20210;-69
2022/10/19 05:11:02;;;;;;;11.00;6.47;;;11.70;99.90;;;;;;5106665;28;20204;-69
2022/10/19 05:13:29;;;;;;;11.83;6.30;;;11.70;99.90;;;;;;5108350;28;20595;-68
2022/10/19 05:15:57;;;;;;;10.43;5.47;;;11.70;99.90;;;;;;5105495;28;20340;-68
2022/10/19 05:18:23;;;;;;;7.20;5.80;;;11.70;99.90;;;;;;5105886;28;20212;-69
2022/10/19 05:20:50;;;;;;;9.43;6.60;;;11.70;99.90;;;;;;5105487;28;20211;-69
2022/10/19 05:23:17;;;;;;;12.77;5.83;;;;;;;;;;5110663;28;20230;-71
2022/10/19 05:25:44;;;;;;;9.30;5.47;;;11.70;99.90;;;;;;5108184;28;20200;-70
2022/10/19 05:28:12;;;;;;;8.10;5.97;;;11.70;99.90;;;;;;5105834;28;20232;-70
2022/10/19 05:30:39;;;;;;;11.80;5.90;;;11.70;99.90;;;;;;5103412;28;20205;-71
2022/10/19 05:33:06;;;;;;;8.17;4.97;;;11.70;99.90;;;;;;5107599;28;20211;-69
2022/10/19 05:35:32;;;;;;;9.00;5.03;;;11.70;99.90;;;;;;5110800;28;20573;-66
2022/10/19 05:37:59;;;;;;;10.47;5.37;;;;;;;;;;5111958;28;20211;-70
2022/10/19 05:40:26;;;;;;;7.50;4.53;;;11.70;99.90;;;;;;5111875;28;20224;-70
2022/10/19 05:42:53;;;;;;;6.17;4.70;;;11.70;99.90;;;;;;5106160;28;20740;-69
2022/10/19 05:45:21;;;;;;;11.07;4.60;;;11.70;99.90;;;;;;5106441;28;20687;-69
2022/10/19 05:47:48;;;;;;;6.73;4.10;;;11.70;99.90;;;;;;5109383;28;20200;-68
2022/10/19 05:50:14;;;;;;;10.63;4.80;;;11.80;99.90;;;;;;5111547;28;20215;-66
2022/10/19 05:52:41;;;;;;;11.80;4.27;;;12.10;99.90;;;;;;5107493;28;20226;-70
2022/10/19 05:55:09;;;;;;;12.67;4.50;;;11.60;99.90;;;;;;5111662;28;20216;-70
2022/10/19 05:57:36;;;;;;;8.20;4.00;;;11.70;99.90;;;;;;5104324;28;20208;-70
2022/10/19 06:00:04;;;;;;;12.83;4.00;;;11.70;99.90;;;;;;5107406;28;20224;-70
2022/10/19 06:02:32;;;;;;;8.47;4.00;;;11.80;99.90;;;;;;5110282;28;20207;-69
2022/10/19 06:04:59;;;;;;;7.63;4.00;;;11.80;99.90;;;;;;5108746;28;20211;-70
2022/10/19 06:07:26;;;;;;;8.73;3.83;;;11.80;99.90;;;;;;5106996;28;20211;-70
2022/10/19 06:09:53;;;;;;;6.47;3.80;;;11.80;99.90;;;;;;5110578;27;20231;-69
2022/10/19 06:12:20;;;;;;;4.83;3.43;;;11.90;99.90;;;;;;5106857;28;20204;-70
2022/10/19 06:14:47;;;;;;;8.27;3.77;;;;;;;;;;5108018;28;20858;-68
2022/10/19 06:17:13;;;;;;;6.93;3.63;;;11.90;99.90;;;;;;5099953;28;20761;-70
2022/10/19 06:19:41;;;;;;;10.83;3.73;;;11.90;99.90;;;;;;5111244;28;20224;-65
2022/10/19 06:22:08;;;;;;;9.00;3.40;;;11.90;99.90;;;;;;5109429;28;20236;-67
2022/10/19 06:24:35;;;;;;;6.43;3.40;;;12.00;99.90;;;;;;5107815;28;20208;-68
2022/10/19 06:27:02;;;;;;;8.10;3.80;;;;;;;;;;5111361;28;20243;-68
2022/10/19 06:29:29;;;;;;;6.10;3.37;;;;;;;;;;5108267;28;20645;-67
2022/10/19 06:31:58;;;;;;;6.50;3.30;;;12.20;99.90;;;;;;5106138;28;20585;-68
2022/10/19 06:34:25;;;;;;;7.53;3.73;;;;;;;;;;5110720;28;20352;-68
2022/10/19 06:36:53;;;;;;;7.00;3.57;;;12.10;99.90;;;;;;5111246;28;20207;-68
2022/10/19 06:39:20;;;;;;;8.60;3.80;;;;;;;;;;5111356;28;20243;-67
2022/10/19 06:41:47;;;;;;;5.50;3.17;;;;;;;;;;5111348;28;20215;-68
2022/10/19 06:44:14;;;;;;;5.93;3.67;;;12.10;99.90;;;;;;5109813;28;20208;-68
2022/10/19 06:46:41;;;;;;;4.63;3.30;;;12.10;99.90;;;;;;5104236;28;20212;-68
2022/10/19 06:49:11;;;;;;;8.00;3.63;;;12.10;99.90;;;;;;5103850;28;20242;-69
2022/10/19 06:51:39;;;;;;;7.00;3.37;;;12.00;99.90;;;;;;5107524;28;20592;-69
2022/10/19 06:54:07;;;;;;;6.97;3.60;;;12.10;99.90;;;;;;5110074;28;20216;-68
2022/10/19 06:56:34;;;;;;;7.07;3.40;;;12.10;99.90;;;;;;5109460;28;20295;-67
2022/10/19 06:59:01;;;;;;;9.47;4.20;;;12.10;99.90;;;;;;5111072;28;20215;-68
2022/10/19 07:01:28;;;;;;;9.47;4.13;;;12.20;99.90;;;;;;5105722;28;20222;-68
2022/10/19 07:03:55;;;;;;;8.83;4.17;;;12.10;99.90;;;;;;5107424;28;20221;-68
2022/10/19 07:06:22;;;;;;;5.67;3.90;;;12.10;99.90;;;;;;5109873;28;20242;-67
2022/10/19 07:08:49;;;;;;;6.60;3.93;;;;;;;;;;5105106;28;20227;-68
2022/10/19 07:11:21;;;;;;;7.73;4.23;;;12.10;99.90;;;;;;5111121;28;20859;-68
2022/10/19 07:13:48;;;;;;;5.73;3.27;;;12.10;99.90;;;;;;5109495;28;20656;-69
2022/10/19 07:16:16;;;;;;;3.97;3.23;;;12.10;99.90;;;;;;5107143;28;20209;-67
2022/10/19 07:18:43;;;;;;;4.73;3.40;;;;;;;;;;5104353;28;20219;-67
2022/10/19 07:21:13;;;;;;;9.83;3.67;;;12.20;99.90;;;;;;5101347;28;20660;-67
2022/10/19 07:23:41;;;;;;;4.83;3.13;;;12.40;99.90;;;;;;5113833;27;20821;-67
2022/10/19 07:26:11;;;;;;;5.77;3.47;;;12.60;99.90;;;;;;5110296;28;20216;-67
2022/10/19 07:28:41;;;;;;;6.03;3.63;;;12.80;99.90;;;;;;5110231;28;20249;-66
2022/10/19 07:31:09;;;;;;;4.57;3.50;;;13.00;99.90;;;;;;5106849;28;20203;-67
2022/10/19 07:33:36;;;;;;;5.07;2.80;;;13.20;99.90;;;;;;5104361;28;20230;-67
2022/10/19 07:36:05;;;;;;;5.67;2.50;;;13.40;99.90;;;;;;5101923;28;20679;-66
2022/10/19 07:38:32;;;;;;;7.37;2.80;;;13.50;99.90;;;;;;5106265;28;20235;-67
2022/10/19 07:41:05;;;;;;;3.07;2.47;;;13.50;99.90;;;;;;5105673;28;20231;-67
2022/10/19 07:43:32;;;;;;;3.97;2.50;;;13.40;99.90;;;;;;5106428;28;20204;-66
2022/10/19 07:46:02;;;;;;;3.73;2.43;;;13.30;99.90;;;;;;5105516;28;20556;-68
2022/10/19 07:48:29;;;;;;;3.67;3.00;;;13.20;99.90;;;;;;5107271;28;20632;-68
2022/10/19 07:50:56;;;;;;;3.30;2.40;;;;;;;;;;5106626;28;20227;-68
2022/10/19 07:53:24;;;;;;;4.93;3.00;;;13.10;99.90;;;;;;5105235;28;20207;-68
2022/10/19 07:55:50;;;;;;;5.23;2.70;;;13.10;99.90;;;;;;5108276;28;20590;-70
2022/10/19 07:58:17;;;;;;;7.93;2.90;;;13.10;99.90;;;;;;5106600;28;20208;-70
2022/10/19 08:00:44;;;;;;;5.33;2.57;;;13.00;99.90;;;;;;5107742;28;20216;-70
2022/10/19 08:03:12;;;;;;;3.60;2.40;;;13.00;99.90;;;;;;5108480;28;20207;-70
2022/10/19 08:05:39;;;;;;;5.57;2.83;;;13.00;99.90;;;;;;5104599;28;20717;-69
2022/10/19 08:08:06;;;;;;;4.17;2.67;;;;;;;;;;5106552;28;20208;-70
2022/10/19 08:10:33;;;;;;;5.67;2.87;;;13.10;99.90;;;;;;5106294;28;20290;-70
2022/10/19 08:12:59;;;;;;;6.87;4.03;;;13.10;99.90;;;;;;5107426;28;20211;-69
2022/10/19 08:15:29;;;;;;;9.63;2.63;;;13.10;99.90;;;;;;5107673;28;20687;-70
2022/10/19 08:17:55;;;;;;;14.57;2.77;;;13.30;99.90;;;;;;5106525;28;20295;-69
2022/10/19 08:20:23;;;;;;;7.33;3.73;;;13.20;99.90;;;;;;5107991;28;20223;-69
2022/10/19 08:22:50;;;;;;;4.63;2.47;;;13.10;99.90;;;;;;5108253;28;20573;-70
2022/10/19 08:25:17;;;;;;;2.60;2.17;;;13.10;99.90;;;;;;5105016;28;20214;-71
2022/10/19 08:27:44;;;;;;;5.67;2.47;;;13.10;99.90;;;;;;5108425;28;20321;-69
2022/10/19 08:30:11;;;;;;;6.40;2.57;;;13.10;99.90;;;;;;5107672;28;20196;-70
2022/10/19 08:32:38;;;;;;;5.57;3.70;;;13.00;99.90;;;;;;5105755;28;20695;-69
2022/10/19 08:35:06;;;;;;;6.00;2.43;;;12.90;99.90;;;;;;5106997;28;20207;-69
2022/10/19 08:37:34;;;;;;;5.87;2.50;;;12.80;99.90;;;;;;5103478;28;20200;-69
2022/10/19 08:40:00;;;;;;;4.30;2.33;;;12.90;99.90;;;;;;5105545;28;20223;-69
2022/10/19 08:42:36;;;;;;;2.53;2.30;;;12.90;99.90;;;;;;5108269;28;20576;-68
2022/10/19 08:45:26;;;;;;;3.00;2.70;;;12.90;99.90;;;;;;5105276;28;20207;-68
2022/10/19 08:48:00;;;;;;;3.67;2.50;;;12.80;99.90;;;;;;5107371;28;20196;-68
2022/10/19 08:50:31;;;;;;;6.97;2.83;;;12.80;99.90;;;;;;5109238;28;20207;-69
2022/10/19 08:53:03;;;;;;;3.10;2.70;;;12.80;99.90;;;;;;5110253;28;20207;-68
2022/10/19 08:55:41;;;;;;;6.83;3.60;;;12.80;99.90;;;;;;5109959;28;20200;-69
2022/10/19 08:58:21;;;;;;;5.73;3.10;;;12.80;99.90;;;;;;5106809;28;20200;-68
2022/10/19 09:00:54;;;;;;;4.03;2.70;;;12.80;99.90;;;;;;5107874;28;20541;-68
2022/10/19 09:03:25;;;;;;;3.60;2.37;;;13.20;99.90;;;;;;5109171;28;20211;-69
2022/10/19 09:06:01;;;;;;;5.83;3.00;;;12.80;99.90;;;;;;5111171;28;20200;-68
2022/10/19 09:08:29;;;;;;;4.90;2.80;;;12.80;99.90;;;;;;5112031;28;20667;-69
2022/10/19 09:10:56;;;;;;;4.57;2.53;;;12.80;99.90;;;;;;5112968;28;20211;-68
2022/10/19 09:13:35;;;;;;;6.10;2.90;;;12.80;99.90;;;;;;5109537;28;20213;-68
2022/10/19 09:16:04;;;;;;;3.10;2.90;;;12.90;99.90;;;;;;5101569;28;20200;-68
2022/10/19 09:18:33;;;;;;;4.33;2.90;;;12.80;99.90;;;;;;5106798;28;20211;-66
2022/10/19 09:21:04;;;;;;;5.37;2.47;;;12.80;99.90;;;;;;5112665;28;20220;-65
2022/10/19 09:23:38;;;;;;;4.67;2.50;;;12.80;99.90;;;;;;5110228;28;20223;-67
2022/10/19 09:26:12;;;;;;;3.40;2.60;;;12.80;99.90;;;;;;5107351;28;20196;-68
2022/10/19 09:28:47;;;;;;;2.67;2.43;;;12.90;99.90;;;;;;5112359;28;20235;-67
2022/10/19 09:31:19;;;;;;;3.00;2.43;;;13.00;99.90;;;;;;5107668;28;20552;-67
2022/10/19 09:33:51;;;;;;;5.57;2.67;;;13.00;99.90;;;;;;5111006;28;20821;-67
2022/10/19 09:36:18;;;;;;;4.80;2.40;;;13.00;99.90;;;;;;5110935;28;20247;-67
2022/10/19 09:38:48;;;;;;;3.00;2.20;;;13.10;99.90;;;;;;5111387;28;20204;-67
2022/10/19 09:41:18;;;;;;;4.17;2.50;;;13.10;99.90;;;;;;5110097;28;20231;-66
2022/10/19 09:43:53;;;;;;;2.67;2.07;;;13.20;99.90;;;;;;5111757;27;20203;-69
2022/10/19 09:46:35;;;;;;;2.67;1.70;;;13.20;99.90;;;;;;5111512;28;20256;-67
2022/10/19 09:49:04;;;;;;;2.73;1.93;;;13.20;99.90;;;;;;5110099;28;20210;-67
2022/10/19 09:51:41;;;;;;;4.13;2.23;;;13.60;99.90;;;;;;5108944;28;20208;-68
2022/10/19 09:54:24;;;;;;;5.93;2.07;;;14.30;99.90;;;;;;5108153;28;20206;-68
2022/10/19 09:56:54;;;;;;;12.20;2.47;;;14.90;99.90;;;;;;5110067;28;20681;-70
2022/10/19 09:59:23;;;;;;;2.13;1.93;;;15.00;99.90;;;;;;5109302;28;20200;-69
2022/10/19 10:02:02;;;;;;;3.07;1.80;;;15.10;99.90;;;;;;5107130;28;20219;-69
2022/10/19 10:04:30;;;;;;;4.00;1.50;;;14.90;99.90;;;;;;5105030;28;20207;-69
2022/10/19 10:06:57;;;;;;;1.67;1.00;;;14.70;99.90;;;;;;5109798;28;20203;-69
2022/10/19 10:09:28;;;;;;;1.60;0.60;;;14.40;99.90;;;;;;5111152;28;20300;-70
2022/10/19 10:11:58;;;;;;;0.63;0.47;;;14.10;99.90;;;;;;5109160;28;20687;-68
2022/10/19 10:14:28;;;;;;;0.50;0.50;;;13.80;99.90;;;;;;5110105;28;20215;-68
2022/10/19 10:16:56;;;;;;;0.40;0.40;;;13.50;99.90;;;;;;5107607;28;20192;-69
2022/10/19 10:19:27;;;;;;;0.40;0.30;;;13.30;99.90;;;;;;5109532;28;20203;-68
2022/10/19 10:21:56;;;;;;;1.37;0.57;;;13.10;99.90;;;;;;5107522;28;20390;-69
2022/10/19 10:24:26;;;;;;;0.43;0.43;;;13.00;99.90;;;;;;5104853;27;20725;-69
2022/10/19 10:26:55;;;;;;;0.90;0.60;;;12.90;99.90;;;;;;5112408;28;20232;-67
2022/10/19 10:29:23;;;;;;;1.27;0.60;;;12.80;99.90;;;;;;5104149;28;20200;-67
2022/10/19 10:31:52;;;;;;;1.27;0.93;;;12.90;99.90;;;;;;5103457;28;20649;-68
2022/10/19 10:34:30;;;;;;;0.47;0.47;;;13.20;99.90;;;;;;5111545;28;20204;-68
2022/10/19 10:36:58;;;;;;;0.80;0.43;;;13.50;99.90;;;;;;5111244;28;20204;-69
2022/10/19 10:39:28;;;;;;;0.80;0.47;;;13.60;99.90;;;;;;5112498;28;20211;-69
2022/10/19 10:41:57;;;;;;;0.70;0.50;;;13.50;99.90;;;;;;5111263;28;20647;-68
2022/10/19 10:44:28;;;;;;;0.47;0.40;;;13.40;99.90;;;;;;5107843;27;20204;-66
2022/10/19 10:46:58;;;;;;;0.60;0.50;;;13.70;99.90;;;;;;5105882;28;20687;-69
2022/10/19 10:49:28;;;;;;;2.47;0.55;;;15.90;99.90;;;;;;5112243;28;20578;-71
2022/10/19 10:51:56;;;;;;;1.10;0.55;;;17.20;99.90;;;;;;5103942;28;20200;-69
2022/10/19 10:54:26;;;;;;;1.02;0.55;;;17.30;99.90;;;;;;5108321;28;20223;-69
2022/10/19 10:57:12;;;;;;;5.10;1.02;;;16.90;99.90;;;;;;5108246;27;20200;-68
2022/10/19 10:59:51;;;;;;;4.32;0.80;;;16.40;99.90;;;;;;5110213;28;20204;-70
2022/10/19 11:02:35;;;;;;;2.20;0.90;;;16.10;99.90;;;;;;5109515;28;20211;-69
2022/10/19 11:05:10;;;;;;;1.80;0.60;;;16.20;99.90;;;;;;5102881;28;20199;-68
2022/10/19 11:07:42;;;;;;;1.52;0.60;;;17.70;99.90;;;;;;5106929;28;20203;-68
2022/10/19 11:10:21;;;;;;;1.52;0.60;;;20.70;99.90;;;;;;5099679;28;20672;-70
2022/10/19 11:12:53;;;;;;;2.22;0.93;;;22.10;98.80;;;;;;5110015;28;20253;-69
2022/10/19 11:15:25;;;;;;;0.95;0.60;;;22.60;98.00;;;;;;5110186;28;20196;-70
2022/10/19 11:17:59;;;;;;;1.33;0.50;;;24.10;92.40;;;;;;5105048;28;20211;-68
2022/10/19 11:20:30;;;;;;;0.93;0.70;;;25.50;84.50;;;;;;5107274;28;20225;-68
2022/10/19 11:23:06;;;;;;;0.73;0.60;;;26.50;78.50;;;;;;5103783;28;20225;-67
2022/10/19 11:25:42;;;;;;;3.50;0.50;;;27.80;68.10;;;;;;5109788;28;20432;-68
2022/10/19 11:28:25;;;;;;;0.52;0.45;;;28.20;65.50;;;;;;5096535;28;20223;-66
2022/10/19 11:30:59;;;;;;;1.25;0.70;;;30.00;60.10;;;;;;5108395;28;20199;-66
2022/10/19 11:33:47;;;;;;;1.17;0.90;;;31.70;53.90;;;;;;5103573;28;20204;-65
2022/10/19 11:36:29;;;;;;;0.52;0.52;;;32.20;50.40;;;;;;5106809;28;20541;-66
2022/10/19 11:39:09;;;;;;;2.90;0.90;;;32.80;47.70;;;;;;5109013;28;20219;-65
2022/10/19 11:41:43;;;;;;;0.60;0.50;;;31.50;45.60;;;;;;5108393;28;20560;-67
2022/10/19 11:44:25;;;;;;;1.63;0.80;;;30.10;46.90;;;;;;5106466;28;20215;-66
2022/10/19 11:47:15;;;;;;;1.15;0.68;;;30.00;46.30;;;;;;5103581;28;20195;-66
2022/10/19 11:49:52;;;;;;;1.08;0.75;;;28.90;46.40;;;;;;5106467;28;20208;-67
2022/10/19 11:52:30;;;;;;;2.63;1.00;;;27.10;48.30;;;;;;5108390;28;20187;-65
2022/10/19 11:55:06;;;;;;;2.65;1.00;;;25.40;50.20;;;;;;5105127;28;20200;-67
2022/10/19 11:57:40;;;;;;;0.50;0.50;;;23.80;53.30;;;;;;5102719;28;20700;-67
2022/10/19 12:00:10;;;;;;;2.50;0.50;;;22.50;55.40;;;;;;5108112;28;20234;-65
2022/10/19 12:02:59;;;;;;;1.45;0.70;;;21.40;57.30;;;;;;5104334;28;20212;-68
2022/10/19 12:05:30;;;;;;;1.17;0.70;;;20.50;59.40;;;;;;5108873;28;20219;-67
2022/10/19 12:08:08;;;;;;;1.13;0.60;;;19.70;60.80;;;;;;5100203;28;20228;-68
2022/10/19 12:10:42;;;;;;;2.20;0.80;;;18.90;61.80;;;;;;5108216;28;20204;-68
2022/10/19 12:13:15;;;;;;;1.52;0.70;;;18.30;63.50;;;;;;5106908;28;20198;-69
2022/10/19 12:15:45;;;;;;;1.30;0.63;;;17.80;65.10;;;;;;5108345;28;20203;-68
2022/10/19 12:18:19;;;;;;;1.10;0.82;;;17.30;66.70;;;;;;5099398;28;20203;-68
2022/10/19 12:20:49;;;;;;;1.15;0.68;;;16.90;67.50;;;;;;5107704;28;20231;-69
2022/10/19 12:23:24;;;;;;;0.80;0.50;;;16.60;69.00;;;;;;5109341;28;20227;-69
2022/10/19 12:25:51;;;;;;;1.23;0.52;;;16.30;70.50;;;;;;5105974;28;20199;-68
2022/10/19 12:28:23;;;;;;;0.73;0.60;;;16.10;71.60;;;;;;5109670;28;20258;-67
2022/10/19 12:30:51;;;;;;;2.35;0.80;;;16.00;72.90;;;;;;5113822;28;20203;-67
2022/10/19 12:33:22;;;;;;;2.33;0.70;;;15.90;74.00;;;;;;5110414;28;20667;-67
2022/10/19 12:36:01;;;;;;;0.70;0.60;;;15.80;75.10;;;;;;5111339;28;20215;-67
2022/10/19 12:38:40;;;;;;;1.13;0.80;;;15.70;75.80;;;;;;5113593;28;20686;-68
2022/10/19 12:41:15;;;;;;;0.53;0.50;;;15.80;75.70;;;;;;5112327;28;20449;-67
2022/10/19 12:43:55;;;;;;;1.50;0.43;;;15.90;74.10;;;;;;5113529;28;20199;-67
2022/10/19 12:46:31;;;;;;;1.05;0.70;;;16.70;75.40;;;;;;5113539;28;20570;-68
2022/10/19 12:49:37;;;;;;;1.75;0.57;;;15.90;74.90;;;;;;5113248;28;20656;-67
2022/10/19 12:52:06;;;;;;;2.40;0.80;;;16.10;75.40;;;;;;5100601;28;20200;-69
2022/10/19 12:54:36;;;;;;;1.83;0.80;;;16.00;74.60;;;;;;5113625;28;20773;-68
2022/10/19 12:57:19;;;;;;;5.40;0.90;;;15.90;74.70;;;;;;5111549;28;20196;-68
2022/10/19 12:59:59;;;;;;;2.85;0.52;;;15.70;74.70;;;;;;5112906;28;20196;-67
2022/10/19 13:02:30;;;;;;;1.98;0.50;;;15.50;74.10;;;;;;5112771;28;20215;-67
2022/10/19 13:04:57;;;;;;;1.07;0.67;;;15.40;73.50;;;;;;5111013;28;20212;-66